sensor_id;sensor_type;location;lat;lon;timestamp;temperature;humidity
19920;DHT22;10122;50.074;19.920;2023-06-14T00:02:03;13.60;99.90
19920;DHT22;10122;50.074;19.920;2023-06-14T00:04:30;13.60;99.90
19920;DHT22;10122;50.074;19.920;2023-06-14T00:06:56;13.60;99.90
19920;DHT22;10122;50.074;19.920;2023-06-14T00:09:22;13.60;99.90
19920;DHT22;10122;50.074;19.920;2023-06-14T00:11:48;13.60;99.90
19920;DHT22;10122;50.074;19.920;2023-06-14T00:14:14;13.70;99.90
19920;DHT22;10122;50.074;19.920;2023-06-14T00:16:40;13.70;99.90
19920;DHT22;10122;50.074;19.920;2023-06-14T00:19:08;13.70;99.90
19920;DHT22;10122;50.074;19.920;2023-06-14T00:21:36;13.80;99.90
19920;DHT22;10122;50.074;19.920;2023-06-14T00:24:02;13.80;99.90
19920;DHT22;10122;50.074;19.920;2023-06-14T00:26:27;13.80;99.90
19920;DHT22;10122;50.074;19.920;2023-06-14T00:28:54;13.80;99.90
19920;DHT22;10122;50.074;19.920;2023-06-14T00:31:20;13.80;99.90
19920;DHT22;10122;50.074;19.920;2023-06-14T00:33:45;13.80;99.90
19920;DHT22;10122;50.074;19.920;2023-06-14T00:36:11;13.80;99.90
19920;DHT22;10122;50.074;19.920;2023-06-14T00:38:37;13.80;99.90
19920;DHT22;10122;50.074;19.920;2023-06-14T00:41:03;13.80;99.90
19920;DHT22;10122;50.074;19.920;2023-06-14T00:43:29;13.90;99.90
19920;DHT22;10122;50.074;19.920;2023-06-14T00:45:55;13.90;99.90
19920;DHT22;10122;50.074;19.920;2023-06-14T00:48:21;13.90;99.90
19920;DHT22;10122;50.074;19.920;2023-06-14T00:50:48;13.90;99.90
19920;DHT22;10122;50.074;19.920;2023-06-14T00:53:17;13.90;99.90
19920;DHT22;10122;50.074;19.920;2023-06-14T00:55:44;13.90;99.90
19920;DHT22;10122;50.074;19.920;2023-06-14T00:58:10;13.80;99.90
19920;DHT22;10122;50.074;19.920;2023-06-14T01:00:36;13.90;99.90
19920;DHT22;10122;50.074;19.920;2023-06-14T01:03:02;13.90;99.90
19920;DHT22;10122;50.074;19.920;2023-06-14T01:05:29;13.90;99.90
19920;DHT22;10122;50.074;19.920;2023-06-14T01:08:05;13.90;99.90
19920;DHT22;10122;50.074;19.920;2023-06-14T01:10:53;13.90;99.90
19920;DHT22;10122;50.074;19.920;2023-06-14T01:13:35;13.90;99.90
19920;DHT22;10122;50.074;19.920;2023-06-14T01:16:02;13.90;99.90
19920;DHT22;10122;50.074;19.920;2023-06-14T01:18:29;13.80;99.90
19920;DHT22;10122;50.074;19.920;2023-06-14T01:20:55;13.80;99.90
19920;DHT22;10122;50.074;19.920;2023-06-14T01:23:22;13.70;99.90
19920;DHT22;10122;50.074;19.920;2023-06-14T01:25:49;13.80;99.90
19920;DHT22;10122;50.074;19.920;2023-06-14T01:28:21;13.80;99.90
19920;DHT22;10122;50.074;19.920;2023-06-14T01:30:52;13.80;99.90
19920;DHT22;10122;50.074;19.920;2023-06-14T01:33:21;13.80;99.90
19920;DHT22;10122;50.074;19.920;2023-06-14T01:35:49;13.80;99.90
19920;DHT22;10122;50.074;19.920;2023-06-14T01:38:17;13.80;99.90
19920;DHT22;10122;50.074;19.920;2023-06-14T01:40:45;13.80;99.90
19920;DHT22;10122;50.074;19.920;2023-06-14T01:43:13;13.80;99.90
19920;DHT22;10122;50.074;19.920;2023-06-14T01:45:41;13.80;99.90
19920;DHT22;10122;50.074;19.920;2023-06-14T01:48:08;13.80;99.90
19920;DHT22;10122;50.074;19.920;2023-06-14T01:50:34;13.80;99.90
19920;DHT22;10122;50.074;19.920;2023-06-14T01:53:00;13.80;99.90
19920;DHT22;10122;50.074;19.920;2023-06-14T01:55:26;13.90;99.90
19920;DHT22;10122;50.074;19.920;2023-06-14T01:57:53;13.90;99.90
19920;DHT22;10122;50.074;19.920;2023-06-14T02:00:19;13.90;99.90
19920;DHT22;10122;50.074;19.920;2023-06-14T02:02:45;13.90;99.90
19920;DHT22;10122;50.074;19.920;2023-06-14T02:05:11;13.90;99.90
19920;DHT22;10122;50.074;19.920;2023-06-14T02:07:37;13.90;99.90
19920;DHT22;10122;50.074;19.920;2023-06-14T02:10:06;14.00;99.90
19920;DHT22;10122;50.074;19.920;2023-06-14T02:12:32;14.00;99.90
19920;DHT22;10122;50.074;19.920;2023-06-14T02:14:58;14.00;99.90
19920;DHT22;10122;50.074;19.920;2023-06-14T02:17:24;14.10;99.90
19920;DHT22;10122;50.074;19.920;2023-06-14T02:19:50;14.10;99.90
19920;DHT22;10122;50.074;19.920;2023-06-14T02:22:16;14.10;99.90
19920;DHT22;10122;50.074;19.920;2023-06-14T02:24:42;14.10;99.90
19920;DHT22;10122;50.074;19.920;2023-06-14T02:27:08;14.10;99.90
19920;DHT22;10122;50.074;19.920;2023-06-14T02:29:36;14.00;99.90
19920;DHT22;10122;50.074;19.920;2023-06-14T02:32:02;14.00;99.90
19920;DHT22;10122;50.074;19.920;2023-06-14T02:34:27;14.00;99.90
19920;DHT22;10122;50.074;19.920;2023-06-14T02:36:53;14.00;99.90
19920;DHT22;10122;50.074;19.920;2023-06-14T02:39:20;14.00;99.90
19920;DHT22;10122;50.074;19.920;2023-06-14T02:41:49;14.00;99.90
19920;DHT22;10122;50.074;19.920;2023-06-14T02:44:17;14.00;99.90
19920;DHT22;10122;50.074;19.920;2023-06-14T02:46:43;14.00;99.90
19920;DHT22;10122;50.074;19.920;2023-06-14T02:49:10;14.00;99.90
19920;DHT22;10122;50.074;19.920;2023-06-14T02:51:35;14.00;99.90
19920;DHT22;10122;50.074;19.920;2023-06-14T02:54:01;14.00;99.90
19920;DHT22;10122;50.074;19.920;2023-06-14T02:56:27;14.00;99.90
19920;DHT22;10122;50.074;19.920;2023-06-14T02:58:53;13.90;99.90
19920;DHT22;10122;50.074;19.920;2023-06-14T03:01:19;14.00;99.90
19920;DHT22;10122;50.074;19.920;2023-06-14T03:03:46;14.00;99.90
19920;DHT22;10122;50.074;19.920;2023-06-14T03:06:11;13.90;99.90
19920;DHT22;10122;50.074;19.920;2023-06-14T03:08:40;14.00;99.90
19920;DHT22;10122;50.074;19.920;2023-06-14T03:11:07;14.00;99.90
19920;DHT22;10122;50.074;19.920;2023-06-14T03:13:37;14.00;99.90
19920;DHT22;10122;50.074;19.920;2023-06-14T03:16:04;14.00;99.90
19920;DHT22;10122;50.074;19.920;2023-06-14T03:18:30;14.00;99.90
19920;DHT22;10122;50.074;19.920;2023-06-14T03:21:01;14.00;99.90
19920;DHT22;10122;50.074;19.920;2023-06-14T03:23:28;14.00;99.90
19920;DHT22;10122;50.074;19.920;2023-06-14T03:25:53;14.00;99.90
19920;DHT22;10122;50.074;19.920;2023-06-14T03:28:19;14.00;99.90
19920;DHT22;10122;50.074;19.920;2023-06-14T03:30:45;14.00;99.90
19920;DHT22;10122;50.074;19.920;2023-06-14T03:33:11;14.00;99.90
19920;DHT22;10122;50.074;19.920;2023-06-14T03:35:37;14.00;99.90
19920;DHT22;10122;50.074;19.920;2023-06-14T03:38:02;14.00;99.90
19920;DHT22;10122;50.074;19.920;2023-06-14T03:40:29;14.00;99.90
19920;DHT22;10122;50.074;19.920;2023-06-14T03:42:55;14.00;99.90
19920;DHT22;10122;50.074;19.920;2023-06-14T03:45:21;14.10;99.90
19920;DHT22;10122;50.074;19.920;2023-06-14T03:47:47;14.10;99.90
19920;DHT22;10122;50.074;19.920;2023-06-14T03:50:12;14.20;99.90
19920;DHT22;10122;50.074;19.920;2023-06-14T03:52:38;14.20;99.90
19920;DHT22;10122;50.074;19.920;2023-06-14T03:55:05;14.20;99.90
19920;DHT22;10122;50.074;19.920;2023-06-14T03:57:31;14.20;99.90
19920;DHT22;10122;50.074;19.920;2023-06-14T03:59:57;14.20;99.90
19920;DHT22;10122;50.074;19.920;2023-06-14T04:02:22;14.20;99.90
19920;DHT22;10122;50.074;19.920;2023-06-14T04:04:49;14.20;99.90
19920;DHT22;10122;50.074;19.920;2023-06-14T04:07:15;14.20;99.90
19920;DHT22;10122;50.074;19.920;2023-06-14T04:09:45;14.20;99.90
19920;DHT22;10122;50.074;19.920;2023-06-14T04:12:11;14.20;99.90
19920;DHT22;10122;50.074;19.920;2023-06-14T04:14:40;14.20;99.90
19920;DHT22;10122;50.074;19.920;2023-06-14T04:17:06;14.20;99.90
19920;DHT22;10122;50.074;19.920;2023-06-14T04:19:32;14.20;99.90
19920;DHT22;10122;50.074;19.920;2023-06-14T04:21:58;14.20;99.90
19920;DHT22;10122;50.074;19.920;2023-06-14T04:24:28;14.20;99.90
19920;DHT22;10122;50.074;19.920;2023-06-14T04:27:00;14.20;99.90
19920;DHT22;10122;50.074;19.920;2023-06-14T04:29:29;14.20;99.90
19920;DHT22;10122;50.074;19.920;2023-06-14T04:31:55;14.20;99.90
19920;DHT22;10122;50.074;19.920;2023-06-14T04:34:28;14.20;99.90
19920;DHT22;10122;50.074;19.920;2023-06-14T04:36:59;14.20;99.90
19920;DHT22;10122;50.074;19.920;2023-06-14T04:39:27;14.20;99.90
19920;DHT22;10122;50.074;19.920;2023-06-14T04:41:53;14.20;99.90
19920;DHT22;10122;50.074;19.920;2023-06-14T04:44:23;14.10;99.90
19920;DHT22;10122;50.074;19.920;2023-06-14T04:46:56;14.10;99.90
19920;DHT22;10122;50.074;19.920;2023-06-14T04:49:22;14.10;99.90
19920;DHT22;10122;50.074;19.920;2023-06-14T04:51:48;14.00;99.90
19920;DHT22;10122;50.074;19.920;2023-06-14T04:54:23;14.00;99.90
19920;DHT22;10122;50.074;19.920;2023-06-14T04:56:50;14.00;99.90
19920;DHT22;10122;50.074;19.920;2023-06-14T04:59:16;14.00;99.90
19920;DHT22;10122;50.074;19.920;2023-06-14T05:01:43;14.00;99.90
19920;DHT22;10122;50.074;19.920;2023-06-14T05:04:14;13.90;99.90
19920;DHT22;10122;50.074;19.920;2023-06-14T05:06:41;13.90;99.90
19920;DHT22;10122;50.074;19.920;2023-06-14T05:09:07;13.90;99.90
19920;DHT22;10122;50.074;19.920;2023-06-14T05:11:33;14.00;99.90
19920;DHT22;10122;50.074;19.920;2023-06-14T05:13:59;14.20;99.90
19920;DHT22;10122;50.074;19.920;2023-06-14T05:16:24;14.20;99.90
19920;DHT22;10122;50.074;19.920;2023-06-14T05:18:52;14.20;99.90
19920;DHT22;10122;50.074;19.920;2023-06-14T05:21:18;14.20;99.90
19920;DHT22;10122;50.074;19.920;2023-06-14T05:23:44;14.20;99.90
19920;DHT22;10122;50.074;19.920;2023-06-14T05:26:10;14.10;99.90
19920;DHT22;10122;50.074;19.920;2023-06-14T05:28:36;14.10;99.90
19920;DHT22;10122;50.074;19.920;2023-06-14T05:31:02;14.10;99.90
19920;DHT22;10122;50.074;19.920;2023-06-14T05:33:28;14.10;99.90
19920;DHT22;10122;50.074;19.920;2023-06-14T05:35:54;14.10;99.90
19920;DHT22;10122;50.074;19.920;2023-06-14T05:38:20;14.10;99.90
19920;DHT22;10122;50.074;19.920;2023-06-14T05:40:46;14.00;99.90
19920;DHT22;10122;50.074;19.920;2023-06-14T05:43:12;14.00;99.90
19920;DHT22;10122;50.074;19.920;2023-06-14T05:45:38;14.00;99.90
19920;DHT22;10122;50.074;19.920;2023-06-14T05:48:03;14.00;99.90
19920;DHT22;10122;50.074;19.920;2023-06-14T05:50:30;14.00;99.90
19920;DHT22;10122;50.074;19.920;2023-06-14T05:52:55;14.00;99.90
19920;DHT22;10122;50.074;19.920;2023-06-14T05:55:21;14.00;99.90
19920;DHT22;10122;50.074;19.920;2023-06-14T05:57:47;14.00;99.90
19920;DHT22;10122;50.074;19.920;2023-06-14T06:00:14;13.90;99.90
19920;DHT22;10122;50.074;19.920;2023-06-14T06:02:44;13.90;99.90
19920;DHT22;10122;50.074;19.920;2023-06-14T06:05:11;13.90;99.90
19920;DHT22;10122;50.074;19.920;2023-06-14T06:07:37;13.90;99.90
19920;DHT22;10122;50.074;19.920;2023-06-14T06:10:04;13.90;99.90
19920;DHT22;10122;50.074;19.920;2023-06-14T06:12:30;13.90;99.90
19920;DHT22;10122;50.074;19.920;2023-06-14T06:14:56;13.90;99.90
19920;DHT22;10122;50.074;19.920;2023-06-14T06:17:22;13.90;99.90
19920;DHT22;10122;50.074;19.920;2023-06-14T06:19:48;13.90;99.90
19920;DHT22;10122;50.074;19.920;2023-06-14T06:22:13;13.90;99.90
19920;DHT22;10122;50.074;19.920;2023-06-14T06:24:39;13.90;99.90
19920;DHT22;10122;50.074;19.920;2023-06-14T06:27:05;14.00;99.90
19920;DHT22;10122;50.074;19.920;2023-06-14T06:29:33;14.00;99.90
19920;DHT22;10122;50.074;19.920;2023-06-14T06:32:00;14.00;99.90
19920;DHT22;10122;50.074;19.920;2023-06-14T06:34:26;14.10;99.90
19920;DHT22;10122;50.074;19.920;2023-06-14T06:36:52;14.10;99.90
19920;DHT22;10122;50.074;19.920;2023-06-14T06:39:18;14.10;99.90
19920;DHT22;10122;50.074;19.920;2023-06-14T06:41:44;14.10;99.90
19920;DHT22;10122;50.074;19.920;2023-06-14T06:44:10;14.20;99.90
19920;DHT22;10122;50.074;19.920;2023-06-14T06:46:36;14.20;99.90
19920;DHT22;10122;50.074;19.920;2023-06-14T06:49:09;14.30;99.90
19920;DHT22;10122;50.074;19.920;2023-06-14T06:51:37;14.40;99.90
19920;DHT22;10122;50.074;19.920;2023-06-14T06:54:03;14.50;99.90
19920;DHT22;10122;50.074;19.920;2023-06-14T06:56:29;14.50;99.90
19920;DHT22;10122;50.074;19.920;2023-06-14T06:58:56;14.50;99.90
19920;DHT22;10122;50.074;19.920;2023-06-14T07:01:22;14.50;99.90
19920;DHT22;10122;50.074;19.920;2023-06-14T07:03:49;14.40;99.90
19920;DHT22;10122;50.074;19.920;2023-06-14T07:06:15;14.40;99.90
19920;DHT22;10122;50.074;19.920;2023-06-14T07:08:44;14.50;99.90
19920;DHT22;10122;50.074;19.920;2023-06-14T07:11:10;14.50;99.90
19920;DHT22;10122;50.074;19.920;2023-06-14T07:13:35;14.50;99.90
19920;DHT22;10122;50.074;19.920;2023-06-14T07:16:01;14.60;99.90
19920;DHT22;10122;50.074;19.920;2023-06-14T07:18:28;14.60;99.90
19920;DHT22;10122;50.074;19.920;2023-06-14T07:20:54;14.60;99.90
19920;DHT22;10122;50.074;19.920;2023-06-14T07:23:20;14.60;99.90
19920;DHT22;10122;50.074;19.920;2023-06-14T07:25:46;14.60;99.90
19920;DHT22;10122;50.074;19.920;2023-06-14T07:28:12;14.60;99.90
19920;DHT22;10122;50.074;19.920;2023-06-14T07:30:38;14.60;99.90
19920;DHT22;10122;50.074;19.920;2023-06-14T07:33:04;14.50;99.90
19920;DHT22;10122;50.074;19.920;2023-06-14T07:35:29;14.50;99.90
19920;DHT22;10122;50.074;19.920;2023-06-14T07:37:55;14.50;99.90
19920;DHT22;10122;50.074;19.920;2023-06-14T07:40:21;14.50;99.90
19920;DHT22;10122;50.074;19.920;2023-06-14T07:42:47;14.60;99.90
19920;DHT22;10122;50.074;19.920;2023-06-14T07:45:16;14.50;99.90
19920;DHT22;10122;50.074;19.920;2023-06-14T07:47:42;14.50;99.90
19920;DHT22;10122;50.074;19.920;2023-06-14T07:50:08;14.50;99.90
19920;DHT22;10122;50.074;19.920;2023-06-14T07:52:34;14.50;99.90
19920;DHT22;10122;50.074;19.920;2023-06-14T07:55:00;14.60;99.90
19920;DHT22;10122;50.074;19.920;2023-06-14T07:57:26;14.60;99.90
19920;DHT22;10122;50.074;19.920;2023-06-14T07:59:51;14.70;99.90
19920;DHT22;10122;50.074;19.920;2023-06-14T08:02:18;14.70;99.90
19920;DHT22;10122;50.074;19.920;2023-06-14T08:04:43;14.70;99.90
19920;DHT22;10122;50.074;19.920;2023-06-14T08:07:09;14.80;99.90
19920;DHT22;10122;50.074;19.920;2023-06-14T08:09:35;14.80;99.90
19920;DHT22;10122;50.074;19.920;2023-06-14T08:12:05;14.80;99.90
19920;DHT22;10122;50.074;19.920;2023-06-14T08:14:33;14.80;99.90
19920;DHT22;10122;50.074;19.920;2023-06-14T08:16:59;14.90;99.90
19920;DHT22;10122;50.074;19.920;2023-06-14T08:19:25;15.00;99.90
19920;DHT22;10122;50.074;19.920;2023-06-14T08:21:51;15.00;99.90
19920;DHT22;10122;50.074;19.920;2023-06-14T08:24:16;15.10;99.90
19920;DHT22;10122;50.074;19.920;2023-06-14T08:26:43;15.10;99.90
19920;DHT22;10122;50.074;19.920;2023-06-14T08:29:08;15.10;99.90
19920;DHT22;10122;50.074;19.920;2023-06-14T08:31:34;15.20;99.90
19920;DHT22;10122;50.074;19.920;2023-06-14T08:34:00;15.20;99.90
19920;DHT22;10122;50.074;19.920;2023-06-14T08:36:26;15.20;99.90
19920;DHT22;10122;50.074;19.920;2023-06-14T08:38:51;15.20;99.90
19920;DHT22;10122;50.074;19.920;2023-06-14T08:41:21;15.30;99.90
19920;DHT22;10122;50.074;19.920;2023-06-14T08:43:48;15.30;99.90
19920;DHT22;10122;50.074;19.920;2023-06-14T08:46:17;15.40;99.90
19920;DHT22;10122;50.074;19.920;2023-06-14T08:48:46;15.50;99.90
19920;DHT22;10122;50.074;19.920;2023-06-14T08:51:13;15.50;99.90
19920;DHT22;10122;50.074;19.920;2023-06-14T08:53:43;15.50;99.90
19920;DHT22;10122;50.074;19.920;2023-06-14T08:56:09;15.50;99.90
19920;DHT22;10122;50.074;19.920;2023-06-14T08:58:49;15.50;99.90
19920;DHT22;10122;50.074;19.920;2023-06-14T09:01:15;15.50;99.90
19920;DHT22;10122;50.074;19.920;2023-06-14T09:03:43;15.50;99.90
19920;DHT22;10122;50.074;19.920;2023-06-14T09:06:10;15.50;99.90
19920;DHT22;10122;50.074;19.920;2023-06-14T09:08:47;15.50;99.90
19920;DHT22;10122;50.074;19.920;2023-06-14T09:11:15;15.50;99.90
19920;DHT22;10122;50.074;19.920;2023-06-14T09:13:42;15.50;99.90
19920;DHT22;10122;50.074;19.920;2023-06-14T09:16:08;15.60;99.90
19920;DHT22;10122;50.074;19.920;2023-06-14T09:18:35;15.60;99.90
19920;DHT22;10122;50.074;19.920;2023-06-14T09:21:01;15.70;99.90
19920;DHT22;10122;50.074;19.920;2023-06-14T09:23:27;16.00;99.90
19920;DHT22;10122;50.074;19.920;2023-06-14T09:25:53;16.20;99.90
19920;DHT22;10122;50.074;19.920;2023-06-14T09:28:19;16.50;99.90
19920;DHT22;10122;50.074;19.920;2023-06-14T09:30:48;16.60;99.90
19920;DHT22;10122;50.074;19.920;2023-06-14T09:33:17;16.70;99.90
19920;DHT22;10122;50.074;19.920;2023-06-14T09:35:46;16.70;99.90
19920;DHT22;10122;50.074;19.920;2023-06-14T09:38:11;16.70;99.90
19920;DHT22;10122;50.074;19.920;2023-06-14T09:40:37;16.80;99.90
19920;DHT22;10122;50.074;19.920;2023-06-14T09:43:06;16.70;99.90
19920;DHT22;10122;50.074;19.920;2023-06-14T09:45:35;16.60;99.90
19920;DHT22;10122;50.074;19.920;2023-06-14T09:48:01;16.50;99.90
19920;DHT22;10122;50.074;19.920;2023-06-14T09:50:27;16.30;99.90
19920;DHT22;10122;50.074;19.920;2023-06-14T09:52:56;16.20;99.90
19920;DHT22;10122;50.074;19.920;2023-06-14T09:55:27;16.20;99.90
19920;DHT22;10122;50.074;19.920;2023-06-14T09:57:54;16.10;99.90
19920;DHT22;10122;50.074;19.920;2023-06-14T10:00:21;16.00;99.90
19920;DHT22;10122;50.074;19.920;2023-06-14T10:02:54;16.00;99.90
19920;DHT22;10122;50.074;19.920;2023-06-14T10:05:24;15.90;99.90
19920;DHT22;10122;50.074;19.920;2023-06-14T10:08:08;15.90;99.90
19920;DHT22;10122;50.074;19.920;2023-06-14T10:10:34;15.80;99.90
19920;DHT22;10122;50.074;19.920;2023-06-14T10:13:00;15.80;99.90
19920;DHT22;10122;50.074;19.920;2023-06-14T10:18:14;15.90;99.90
19920;DHT22;10122;50.074;19.920;2023-06-14T10:21:33;16.00;99.90
19920;DHT22;10122;50.074;19.920;2023-06-14T10:23:51;16.00;99.90
19920;DHT22;10122;50.074;19.920;2023-06-14T10:26:22;16.10;99.90
19920;DHT22;10122;50.074;19.920;2023-06-14T10:29:06;16.20;99.90
19920;DHT22;10122;50.074;19.920;2023-06-14T10:31:43;16.30;99.90
19920;DHT22;10122;50.074;19.920;2023-06-14T10:34:10;16.40;99.90
19920;DHT22;10122;50.074;19.920;2023-06-14T10:36:36;16.50;99.90
19920;DHT22;10122;50.074;19.920;2023-06-14T10:39:05;16.50;99.90
19920;DHT22;10122;50.074;19.920;2023-06-14T10:41:35;16.60;99.90
19920;DHT22;10122;50.074;19.920;2023-06-14T10:46:53;16.50;99.90
19920;DHT22;10122;50.074;19.920;2023-06-14T10:49:19;16.50;99.90
19920;DHT22;10122;50.074;19.920;2023-06-14T10:51:49;16.50;99.90
19920;DHT22;10122;50.074;19.920;2023-06-14T10:54:16;16.60;99.90
19920;DHT22;10122;50.074;19.920;2023-06-14T10:56:52;16.70;99.90
19920;DHT22;10122;50.074;19.920;2023-06-14T10:59:19;16.80;99.90
19920;DHT22;10122;50.074;19.920;2023-06-14T11:04:51;17.00;99.90
19920;DHT22;10122;50.074;19.920;2023-06-14T11:12:53;17.50;99.90
19920;DHT22;10122;50.074;19.920;2023-06-14T11:15:20;17.60;99.90
19920;DHT22;10122;50.074;19.920;2023-06-14T11:17:52;17.70;99.90
19920;DHT22;10122;50.074;19.920;2023-06-14T11:20:25;17.80;99.90
19920;DHT22;10122;50.074;19.920;2023-06-14T11:22:52;17.80;99.90
19920;DHT22;10122;50.074;19.920;2023-06-14T11:25:19;17.90;99.90
19920;DHT22;10122;50.074;19.920;2023-06-14T11:27:45;17.90;99.90
19920;DHT22;10122;50.074;19.920;2023-06-14T11:30:12;18.00;99.90
19920;DHT22;10122;50.074;19.920;2023-06-14T11:32:39;18.00;99.90
19920;DHT22;10122;50.074;19.920;2023-06-14T11:35:05;18.00;99.90
19920;DHT22;10122;50.074;19.920;2023-06-14T11:37:32;18.00;99.90
19920;DHT22;10122;50.074;19.920;2023-06-14T11:40:01;18.00;99.90
19920;DHT22;10122;50.074;19.920;2023-06-14T11:42:29;18.00;99.90
19920;DHT22;10122;50.074;19.920;2023-06-14T11:44:56;17.90;99.90
19920;DHT22;10122;50.074;19.920;2023-06-14T11:47:22;17.90;99.90
19920;DHT22;10122;50.074;19.920;2023-06-14T11:49:48;17.90;99.90
19920;DHT22;10122;50.074;19.920;2023-06-14T11:52:14;17.90;99.90
19920;DHT22;10122;50.074;19.920;2023-06-14T11:54:40;18.00;99.90
19920;DHT22;10122;50.074;19.920;2023-06-14T11:57:09;18.10;99.90
19920;DHT22;10122;50.074;19.920;2023-06-14T11:59:39;18.20;99.90
19920;DHT22;10122;50.074;19.920;2023-06-14T12:02:06;18.30;99.90
19920;DHT22;10122;50.074;19.920;2023-06-14T12:04:32;18.40;99.90
19920;DHT22;10122;50.074;19.920;2023-06-14T12:07:12;18.50;99.90
19920;DHT22;10122;50.074;19.920;2023-06-14T12:12:20;18.90;99.90
19920;DHT22;10122;50.074;19.920;2023-06-14T12:14:47;19.20;99.90
19920;DHT22;10122;50.074;19.920;2023-06-14T12:17:12;19.40;99.90
19920;DHT22;10122;50.074;19.920;2023-06-14T12:19:42;19.70;99.90
19920;DHT22;10122;50.074;19.920;2023-06-14T12:22:13;19.90;99.90
19920;DHT22;10122;50.074;19.920;2023-06-14T12:24:42;20.10;99.90
19920;DHT22;10122;50.074;19.920;2023-06-14T12:27:08;20.20;99.90
19920;DHT22;10122;50.074;19.920;2023-06-14T12:29:33;20.30;99.90
19920;DHT22;10122;50.074;19.920;2023-06-14T12:31:59;20.40;99.90
19920;DHT22;10122;50.074;19.920;2023-06-14T12:34:26;20.40;99.90
19920;DHT22;10122;50.074;19.920;2023-06-14T12:36:55;20.40;99.90
19920;DHT22;10122;50.074;19.920;2023-06-14T12:39:21;20.30;99.90
19920;DHT22;10122;50.074;19.920;2023-06-14T12:41:47;20.20;99.90
19920;DHT22;10122;50.074;19.920;2023-06-14T12:44:14;20.00;99.90
19920;DHT22;10122;50.074;19.920;2023-06-14T12:46:41;19.90;99.90
19920;DHT22;10122;50.074;19.920;2023-06-14T12:49:09;19.80;99.90
19920;DHT22;10122;50.074;19.920;2023-06-14T12:51:36;19.70;99.90
19920;DHT22;10122;50.074;19.920;2023-06-14T12:54:02;19.60;99.90
19920;DHT22;10122;50.074;19.920;2023-06-14T12:56:28;19.40;99.90
19920;DHT22;10122;50.074;19.920;2023-06-14T12:58:54;19.30;99.90
19920;DHT22;10122;50.074;19.920;2023-06-14T13:01:20;19.20;99.90
19920;DHT22;10122;50.074;19.920;2023-06-14T13:03:46;19.10;99.90
19920;DHT22;10122;50.074;19.920;2023-06-14T13:06:18;19.20;99.90
19920;DHT22;10122;50.074;19.920;2023-06-14T13:08:43;19.30;99.90
19920;DHT22;10122;50.074;19.920;2023-06-14T13:11:09;19.30;99.90
19920;DHT22;10122;50.074;19.920;2023-06-14T13:13:35;19.40;99.90
19920;DHT22;10122;50.074;19.920;2023-06-14T13:16:01;19.50;99.90
19920;DHT22;10122;50.074;19.920;2023-06-14T13:18:26;19.40;99.90
19920;DHT22;10122;50.074;19.920;2023-06-14T13:20:52;19.30;99.90
19920;DHT22;10122;50.074;19.920;2023-06-14T13:23:17;19.30;99.90
19920;DHT22;10122;50.074;19.920;2023-06-14T13:25:43;19.30;99.90
19920;DHT22;10122;50.074;19.920;2023-06-14T13:28:09;19.40;99.90
19920;DHT22;10122;50.074;19.920;2023-06-14T13:30:35;19.40;99.90
19920;DHT22;10122;50.074;19.920;2023-06-14T13:33:01;19.50;99.90
19920;DHT22;10122;50.074;19.920;2023-06-14T13:35:27;19.50;99.90
19920;DHT22;10122;50.074;19.920;2023-06-14T13:37:53;19.60;99.90
19920;DHT22;10122;50.074;19.920;2023-06-14T13:40:18;19.70;99.90
19920;DHT22;10122;50.074;19.920;2023-06-14T13:42:45;19.80;99.90
19920;DHT22;10122;50.074;19.920;2023-06-14T13:45:12;19.80;99.90
19920;DHT22;10122;50.074;19.920;2023-06-14T13:47:39;19.90;99.90
19920;DHT22;10122;50.074;19.920;2023-06-14T13:50:05;20.00;99.90
19920;DHT22;10122;50.074;19.920;2023-06-14T13:52:31;19.90;99.90
19920;DHT22;10122;50.074;19.920;2023-06-14T13:54:57;19.80;99.90
19920;DHT22;10122;50.074;19.920;2023-06-14T13:57:22;19.70;99.90
19920;DHT22;10122;50.074;19.920;2023-06-14T13:59:48;19.70;99.90
19920;DHT22;10122;50.074;19.920;2023-06-14T14:02:14;19.70;99.90
19920;DHT22;10122;50.074;19.920;2023-06-14T14:04:41;19.80;99.90
19920;DHT22;10122;50.074;19.920;2023-06-14T14:07:07;19.80;99.90
19920;DHT22;10122;50.074;19.920;2023-06-14T14:09:33;19.80;99.90
19920;DHT22;10122;50.074;19.920;2023-06-14T14:12:03;19.70;99.90
19920;DHT22;10122;50.074;19.920;2023-06-14T14:14:32;19.70;99.90
19920;DHT22;10122;50.074;19.920;2023-06-14T14:16:58;19.70;99.90
19920;DHT22;10122;50.074;19.920;2023-06-14T14:19:24;19.70;99.90
19920;DHT22;10122;50.074;19.920;2023-06-14T14:21:50;19.60;99.90
19920;DHT22;10122;50.074;19.920;2023-06-14T14:24:16;19.60;99.90
19920;DHT22;10122;50.074;19.920;2023-06-14T14:26:42;19.60;99.90
19920;DHT22;10122;50.074;19.920;2023-06-14T14:29:08;19.70;99.90
19920;DHT22;10122;50.074;19.920;2023-06-14T14:31:37;19.90;99.90
19920;DHT22;10122;50.074;19.920;2023-06-14T14:34:02;20.00;99.90
19920;DHT22;10122;50.074;19.920;2023-06-14T14:36:28;20.10;99.90
19920;DHT22;10122;50.074;19.920;2023-06-14T14:38:54;20.10;99.90
19920;DHT22;10122;50.074;19.920;2023-06-14T14:41:19;20.20;99.90
19920;DHT22;10122;50.074;19.920;2023-06-14T14:43:45;20.20;99.90
19920;DHT22;10122;50.074;19.920;2023-06-14T14:46:11;20.30;99.90
19920;DHT22;10122;50.074;19.920;2023-06-14T14:48:37;20.40;99.90
19920;DHT22;10122;50.074;19.920;2023-06-14T14:51:02;20.50;99.90
19920;DHT22;10122;50.074;19.920;2023-06-14T14:53:29;20.50;99.90
19920;DHT22;10122;50.074;19.920;2023-06-14T14:55:54;20.50;99.90
19920;DHT22;10122;50.074;19.920;2023-06-14T14:58:20;20.60;99.90
19920;DHT22;10122;50.074;19.920;2023-06-14T15:00:47;20.70;99.90
19920;DHT22;10122;50.074;19.920;2023-06-14T15:03:13;20.60;99.90
19920;DHT22;10122;50.074;19.920;2023-06-14T15:05:39;20.60;99.90
19920;DHT22;10122;50.074;19.920;2023-06-14T15:08:06;20.50;99.90
19920;DHT22;10122;50.074;19.920;2023-06-14T15:10:40;20.30;99.90
19920;DHT22;10122;50.074;19.920;2023-06-14T15:13:07;20.00;99.90
19920;DHT22;10122;50.074;19.920;2023-06-14T15:15:36;19.70;99.90
19920;DHT22;10122;50.074;19.920;2023-06-14T15:18:02;19.40;99.90
19920;DHT22;10122;50.074;19.920;2023-06-14T15:20:28;19.20;99.90
19920;DHT22;10122;50.074;19.920;2023-06-14T15:22:54;18.90;99.90
19920;DHT22;10122;50.074;19.920;2023-06-14T15:25:28;18.80;99.90
19920;DHT22;10122;50.074;19.920;2023-06-14T15:27:55;18.80;99.90
19920;DHT22;10122;50.074;19.920;2023-06-14T15:30:21;18.80;99.90
19920;DHT22;10122;50.074;19.920;2023-06-14T15:32:47;18.80;99.90